Time;durP1;ratioP1;P1;durP2;ratioP2;P2;SDS_P1;SDS_P2;PMS_P1;PMS_P2;Temp;Humidity;BMP_temperature;BMP_pressure;BME280_temperature;BME280_humidity;BME280_pressure;Samples;Min_cycle;Max_cycle;Signal;HPM_P1;HPM_P2
2022/10/09 06:09:43;;;;;;;5.82;2.55;;;15.70;67.60;;;;;;5329682;24;20141;-76
2022/10/09 06:12:08;;;;;;;3.13;2.45;;;15.70;66.80;;;;;;4846713;29;20057;-74
2022/10/09 06:14:34;;;;;;;5.13;2.63;;;15.70;66.20;;;;;;4814068;29;20073;-74
2022/10/09 06:17:00;;;;;;;4.88;2.50;;;15.70;65.50;;;;;;4837382;29;20046;-75
2022/10/09 06:19:26;;;;;;;5.32;2.92;;;15.70;65.20;;;;;;4847006;29;20056;-73
2022/10/09 06:21:51;;;;;;;6.85;2.80;;;15.70;65.00;;;;;;4831132;29;20042;-77
2022/10/09 06:24:20;;;;;;;5.13;2.42;;;15.70;65.70;;;;;;4831374;29;20050;-75
2022/10/09 06:26:46;;;;;;;4.75;2.33;;;15.70;65.40;;;;;;4846645;29;20064;-77
2022/10/09 06:29:12;;;;;;;6.65;1.80;;;15.70;65.70;;;;;;4846791;29;20050;-76
2022/10/09 06:31:38;;;;;;;4.25;2.15;;;15.70;66.10;;;;;;4846869;29;20049;-78
2022/10/09 06:34:03;;;;;;;6.25;2.05;;;15.70;66.50;;;;;;4847511;29;20060;-76
2022/10/09 06:36:32;;;;;;;4.32;1.83;;;15.70;66.80;;;;;;4847261;29;20050;-76
2022/10/09 06:38:59;;;;;;;7.32;2.53;;;15.80;66.60;;;;;;4846779;29;20088;-78
2022/10/09 06:41:26;;;;;;;6.45;2.28;;;15.80;66.50;;;;;;4847009;29;20057;-78
2022/10/09 06:43:55;;;;;;;7.15;1.98;;;15.80;66.20;;;;;;4846896;29;20058;-75
2022/10/09 06:46:26;;;;;;;4.57;1.92;;;15.70;66.10;;;;;;4847073;29;20370;-78
2022/10/09 06:49:10;;;;;;;8.18;2.05;;;15.60;66.30;;;;;;4847039;29;20050;-81
2022/10/09 06:51:37;;;;;;;6.68;2.40;;;15.60;66.80;;;;;;4814806;29;20136;-77
2022/10/09 06:54:07;;;;;;;8.88;2.67;;;15.60;66.90;;;;;;4846312;29;20046;-73
2022/10/09 06:56:33;;;;;;;8.27;2.63;;;15.70;66.80;;;;;;4846338;29;20046;-74
2022/10/09 06:59:02;;;;;;;6.65;2.10;;;15.70;66.70;;;;;;4846707;29;20140;-72
2022/10/09 07:01:30;;;;;;;9.40;2.55;;;15.70;66.70;;;;;;4846774;29;20374;-74
2022/10/09 07:04:05;;;;;;;14.50;2.28;;;15.80;66.90;;;;;;4846724;29;20050;-72
2022/10/09 07:06:33;;;;;;;11.95;3.08;;;15.70;67.10;;;;;;4846947;29;20046;-71
2022/10/09 07:09:03;;;;;;;13.82;2.22;;;15.70;67.40;;;;;;4846599;29;20054;-72
2022/10/09 07:11:35;;;;;;;10.23;1.90;;;15.70;67.50;;;;;;4845845;29;20469;-72
2022/10/09 07:14:05;;;;;;;5.93;1.67;;;15.70;67.90;;;;;;4846374;29;20466;-73
2022/10/09 07:16:33;;;;;;;7.90;2.42;;;15.70;68.20;;;;;;4846211;29;20053;-72
2022/10/09 07:19:02;;;;;;;13.68;2.42;;;15.70;68.50;;;;;;4846580;29;20042;-73
2022/10/09 07:21:28;;;;;;;11.05;1.80;;;15.70;68.60;;;;;;4846820;29;20061;-72
2022/10/09 07:23:53;;;;;;;13.00;1.90;;;15.60;68.60;;;;;;4846120;29;20054;-73
2022/10/09 07:26:23;;;;;;;12.98;1.90;;;15.60;68.80;;;;;;4846212;29;20394;-73
2022/10/09 07:28:49;;;;;;;13.75;1.85;;;15.60;68.90;;;;;;4846415;29;20057;-72
2022/10/09 07:31:16;;;;;;;11.80;2.15;;;15.60;69.00;;;;;;4846485;29;20133;-72
2022/10/09 07:33:41;;;;;;;11.15;1.85;;;15.60;69.10;;;;;;4830260;29;20053;-73
2022/10/09 07:36:09;;;;;;;9.77;2.35;;;15.60;69.20;;;;;;4845983;29;20369;-73
2022/10/09 07:38:35;;;;;;;10.23;1.80;;;15.60;69.40;;;;;;4845648;29;20351;-73
2022/10/09 07:41:06;;;;;;;9.05;1.77;;;15.60;69.50;;;;;;4846097;29;20065;-73
2022/10/09 07:43:37;;;;;;;10.30;1.58;;;15.60;69.60;;;;;;4846214;29;20045;-72
2022/10/09 07:46:05;;;;;;;9.70;1.88;;;15.60;69.70;;;;;;4846795;29;20046;-73
2022/10/09 07:48:33;;;;;;;8.70;1.55;;;15.60;69.80;;;;;;4845567;29;20129;-73
2022/10/09 07:51:14;;;;;;;8.45;1.95;;;15.60;70.00;;;;;;4845857;29;20049;-73
2022/10/09 07:53:40;;;;;;;7.50;1.67;;;15.60;70.00;;;;;;4846029;29;20050;-72
2022/10/09 07:56:06;;;;;;;15.57;1.70;;;15.60;70.10;;;;;;4845936;29;20136;-73
2022/10/09 07:58:32;;;;;;;10.55;1.90;;;15.60;70.10;;;;;;4845652;29;20054;-73
2022/10/09 08:01:06;;;;;;;11.00;2.20;;;15.60;70.10;;;;;;4845710;29;20058;-73
2022/10/09 08:03:33;;;;;;;10.65;1.60;;;15.60;70.10;;;;;;4845140;29;20089;-73
2022/10/09 08:05:58;;;;;;;11.32;1.85;;;15.60;70.30;;;;;;4845979;29;20346;-73
2022/10/09 08:08:24;;;;;;;10.63;2.00;;;15.70;70.40;;;;;;4845811;29;20052;-73
2022/10/09 08:10:50;;;;;;;10.95;1.88;;;15.70;70.40;;;;;;4845225;29;20054;-72
2022/10/09 08:13:16;;;;;;;16.75;3.22;;;15.70;70.50;;;;;;4845297;29;20110;-74
2022/10/09 08:15:43;;;;;;;11.55;2.42;;;15.70;70.60;;;;;;4845347;29;20054;-75
2022/10/09 08:18:10;;;;;;;20.92;3.15;;;15.70;71.00;;;;;;4829377;29;20052;-73
2022/10/09 08:20:36;;;;;;;11.32;3.00;;;15.80;69.80;;;;;;4845570;29;20094;-74
2022/10/09 08:23:02;;;;;;;10.05;2.83;;;15.80;69.20;;;;;;4845199;29;20194;-76
2022/10/09 08:25:28;;;;;;;19.30;3.60;;;15.90;69.00;;;;;;4845579;29;20096;-73
2022/10/09 08:27:54;;;;;;;6.65;3.17;;;15.90;68.80;;;;;;4845218;29;20061;-76
2022/10/09 08:30:20;;;;;;;8.15;2.63;;;16.00;67.60;;;;;;4845329;29;20134;-75
2022/10/09 08:32:46;;;;;;;10.55;3.03;;;15.90;66.70;;;;;;4844989;29;20050;-73
2022/10/09 08:35:12;;;;;;;8.07;2.65;;;15.80;67.00;;;;;;4828664;29;20057;-75
2022/10/09 08:37:38;;;;;;;9.63;2.30;;;15.80;67.40;;;;;;4845533;29;20050;-74
2022/10/09 08:40:06;;;;;;;5.60;2.30;;;15.70;67.50;;;;;;4844203;29;20373;-75
2022/10/09 08:42:41;;;;;;;7.40;2.50;;;15.80;67.70;;;;;;4844887;29;20050;-73
2022/10/09 08:45:16;;;;;;;7.97;3.08;;;15.80;67.70;;;;;;4844854;29;20293;-73
2022/10/09 08:48:03;;;;;;;5.95;2.17;;;15.80;67.80;;;;;;4844766;29;20050;-73
2022/10/09 08:50:36;;;;;;;5.55;2.47;;;15.80;68.20;;;;;;4845311;29;20057;-75
2022/10/09 08:53:12;;;;;;;6.18;2.17;;;15.90;68.20;;;;;;4844586;29;20065;-74
2022/10/09 08:55:49;;;;;;;6.57;2.30;;;15.90;68.30;;;;;;4844871;29;20054;-73
2022/10/09 08:58:19;;;;;;;5.97;2.03;;;15.90;67.80;;;;;;4844963;29;20450;-73
2022/10/09 09:00:51;;;;;;;6.68;2.63;;;15.90;67.70;;;;;;4844834;29;20114;-76
2022/10/09 09:03:48;;;;;;;6.28;2.00;;;15.90;66.60;;;;;;4844533;29;20377;-73
2022/10/09 09:06:42;;;;;;;8.35;2.53;;;15.90;66.90;;;;;;4838613;29;20343;-73
2022/10/09 09:09:18;;;;;;;4.82;1.85;;;15.90;66.90;;;;;;4810826;29;20074;-73
2022/10/09 09:12:20;;;;;;;4.45;1.85;;;15.90;67.00;;;;;;4811245;29;20058;-73
2022/10/09 09:15:21;;;;;;;6.05;1.70;;;15.80;67.50;;;;;;4805588;29;20064;-73
2022/10/09 09:18:04;;;;;;;6.78;2.05;;;15.80;67.70;;;;;;4843618;29;20062;-73
2022/10/09 09:20:42;;;;;;;7.50;1.47;;;15.80;67.70;;;;;;4844767;29;20339;-73
2022/10/09 09:23:14;;;;;;;4.85;1.45;;;15.80;67.90;;;;;;4843942;29;20060;-71
2022/10/09 09:25:43;;;;;;;5.57;1.52;;;15.80;68.20;;;;;;4844425;29;20057;-71
2022/10/09 09:28:21;;;;;;;5.07;1.15;;;15.80;68.50;;;;;;4844516;29;20136;-71
2022/10/09 09:30:54;;;;;;;5.93;1.45;;;15.80;68.80;;;;;;4844625;29;20042;-71
2022/10/09 09:33:41;;;;;;;5.32;1.33;;;15.90;68.90;;;;;;4843791;29;20050;-71
2022/10/09 09:36:16;;;;;;;5.32;1.73;;;15.90;69.80;;;;;;4844136;29;20065;-71
2022/10/09 09:38:41;;;;;;;2.55;0.77;;;15.90;69.30;;;;;;4844160;29;20060;-72
2022/10/09 09:41:07;;;;;;;2.10;0.98;;;15.80;69.20;;;;;;4844512;29;20049;-71
2022/10/09 09:43:33;;;;;;;4.80;1.00;;;15.80;69.30;;;;;;4843862;29;20454;-71
2022/10/09 09:46:00;;;;;;;4.82;1.13;;;15.90;69.50;;;;;;4843948;29;20486;-71
2022/10/09 09:48:36;;;;;;;4.68;1.05;;;15.90;69.50;;;;;;4844083;29;20046;-71
2022/10/09 09:51:11;;;;;;;4.93;1.38;;;15.90;69.70;;;;;;4844225;29;20108;-71
2022/10/09 09:53:44;;;;;;;3.92;1.05;;;15.90;69.60;;;;;;4843988;29;20411;-71
2022/10/09 09:56:10;;;;;;;4.33;1.10;;;15.90;69.70;;;;;;4828313;29;20058;-71
2022/10/09 09:58:43;;;;;;;8.90;1.20;;;15.90;69.70;;;;;;4844004;29;20061;-74
2022/10/09 10:01:26;;;;;;;4.28;1.45;;;15.90;69.70;;;;;;4827296;29;20061;-75
2022/10/09 10:03:55;;;;;;;4.57;0.98;;;16.00;69.40;;;;;;4824922;29;20050;-77
2022/10/09 10:06:32;;;;;;;4.15;0.95;;;16.00;69.60;;;;;;4838250;29;20081;-77
2022/10/09 10:09:13;;;;;;;6.15;1.40;;;16.00;69.40;;;;;;4843978;29;20054;-75
2022/10/09 10:12:03;;;;;;;6.97;1.35;;;16.00;69.20;;;;;;4843637;29;20106;-75
2022/10/09 10:14:31;;;;;;;6.93;1.48;;;16.10;69.10;;;;;;4843437;29;20105;-74
2022/10/09 10:16:59;;;;;;;6.85;1.10;;;16.10;69.30;;;;;;4843776;29;20115;-72
2022/10/09 10:19:33;;;;;;;4.45;1.30;;;16.10;69.30;;;;;;4828056;29;20068;-77
2022/10/09 10:22:00;;;;;;;;;;;16.10;69.20;;;;;;4843903;29;20074;-78
2022/10/09 10:24:40;;;;;;;5.63;1.40;;;16.10;69.20;;;;;;4843411;29;20347;-77
2022/10/09 10:27:06;;;;;;;3.30;0.90;;;16.20;69.20;;;;;;4843045;29;20136;-78
2022/10/09 10:29:39;;;;;;;7.07;1.38;;;16.20;69.20;;;;;;4840973;29;20748;-79
2022/10/09 10:32:19;;;;;;;5.47;0.93;;;16.20;69.10;;;;;;4839841;29;20061;-76
2022/10/09 10:35:10;;;;;;;4.25;0.90;;;16.20;69.40;;;;;;4843281;29;20042;-75
2022/10/09 10:37:54;;;;;;;4.13;1.00;;;16.20;69.70;;;;;;4842790;29;20050;-75
2022/10/09 10:40:22;;;;;;;;;;;16.20;69.90;;;;;;4843996;29;20057;-78
2022/10/09 10:43:09;;;;;;;6.65;1.63;;;16.20;69.90;;;;;;4827633;29;19967;-78
2022/10/09 10:45:59;;;;;;;7.70;1.45;;;16.20;69.70;;;;;;4844761;29;20136;-75
2022/10/09 10:48:28;;;;;;;3.83;1.55;;;16.20;69.30;;;;;;4843804;29;20049;-78
2022/10/09 10:51:15;;;;;;;3.60;1.10;;;16.20;69.30;;;;;;4846891;29;20437;-77
2022/10/09 10:53:49;;;;;;;3.97;1.13;;;16.20;68.50;;;;;;4830305;29;20068;-79
2022/10/09 10:56:28;;;;;;;7.47;1.40;;;16.30;68.30;;;;;;4846421;29;20128;-84
2022/10/09 10:59:04;;;;;;;5.57;1.00;;;16.20;68.40;;;;;;4846536;29;20126;-78
2022/10/09 11:01:58;;;;;;;8.50;1.67;;;16.30;68.60;;;;;;4846654;29;20078;-77
2022/10/09 11:04:58;;;;;;;5.47;1.25;;;16.30;68.60;;;;;;4845558;29;20046;-79
2022/10/09 11:07:35;;;;;;;5.45;1.35;;;16.30;67.80;;;;;;4828024;29;20049;-77
2022/10/09 11:10:29;;;;;;;5.70;1.13;;;16.30;68.70;;;;;;4827699;29;20073;-74
2022/10/09 11:12:59;;;;;;;8.88;1.50;;;16.30;68.50;;;;;;4847208;29;20066;-76
2022/10/09 11:15:25;;;;;;;7.63;1.52;;;16.30;69.30;;;;;;4846301;29;20092;-74
2022/10/09 11:18:16;;;;;;;11.75;1.23;;;16.30;68.80;;;;;;4854015;29;20091;-76
2022/10/09 11:20:56;;;;;;;7.28;1.48;;;16.30;68.90;;;;;;4827588;29;20056;-74
2022/10/09 11:23:49;;;;;;;10.35;1.58;;;16.30;68.80;;;;;;4827946;29;20046;-76
2022/10/09 11:26:33;;;;;;;17.40;1.98;;;16.30;68.90;;;;;;4828084;29;20050;-74
2022/10/09 11:29:05;;;;;;;13.43;1.55;;;16.30;69.20;;;;;;4836039;29;20050;-76
2022/10/09 11:31:41;;;;;;;10.70;1.13;;;16.30;68.20;;;;;;4846428;29;20060;-76
2022/10/09 11:34:27;;;;;;;9.48;1.13;;;16.40;68.10;;;;;;4846207;29;20065;-75
2022/10/09 11:36:54;;;;;;;8.35;1.60;;;16.30;67.20;;;;;;4845976;29;20472;-74
2022/10/09 11:39:24;;;;;;;9.73;1.60;;;16.40;66.70;;;;;;4845591;29;20474;-74
2022/10/09 11:41:52;;;;;;;8.55;1.63;;;16.40;66.10;;;;;;4846447;29;20049;-74
2022/10/09 11:44:53;;;;;;;13.32;1.65;;;16.40;65.80;;;;;;4845916;29;20129;-75
2022/10/09 11:47:43;;;;;;;8.38;1.45;;;16.40;65.60;;;;;;4846304;29;20056;-73
2022/10/09 11:50:08;;;;;;;10.73;1.50;;;16.40;65.20;;;;;;4845330;29;20121;-73
2022/10/09 11:52:46;;;;;;;11.48;2.08;;;16.40;65.10;;;;;;4841299;29;20124;-73
2022/10/09 11:55:24;;;;;;;15.85;2.05;;;16.40;65.80;;;;;;4839046;29;20046;-74
2022/10/09 11:57:50;;;;;;;9.88;1.27;;;16.40;66.70;;;;;;4840662;29;20053;-74
2022/10/09 12:00:27;;;;;;;6.88;1.10;;;16.40;67.20;;;;;;4827681;29;20050;-74
2022/10/09 12:02:59;;;;;;;12.23;1.52;;;16.30;67.60;;;;;;4843498;29;20493;-74
2022/10/09 12:05:42;;;;;;;15.82;2.40;;;16.40;67.60;;;;;;4845726;29;20054;-73
2022/10/09 12:08:31;;;;;;;18.45;2.55;;;16.40;67.40;;;;;;4845760;29;20046;-73
2022/10/09 12:11:18;;;;;;;17.70;1.98;;;16.40;67.00;;;;;;4844986;29;20058;-73
2022/10/09 12:13:52;;;;;;;15.45;1.80;;;16.40;67.90;;;;;;4826449;29;20070;-73
2022/10/09 12:16:37;;;;;;;21.17;2.95;;;16.40;67.40;;;;;;4827403;29;20058;-72
2022/10/09 12:19:12;;;;;;;13.07;2.17;;;16.50;67.50;;;;;;4827431;29;20370;-74
2022/10/09 12:21:45;;;;;;;14.05;1.55;;;16.40;67.00;;;;;;4829623;29;20123;-74
2022/10/09 12:24:16;;;;;;;5.60;1.00;;;16.40;66.40;;;;;;4845510;29;20351;-74
2022/10/09 12:26:42;;;;;;;15.93;1.40;;;16.50;66.10;;;;;;4845149;29;20058;-74
2022/10/09 12:29:20;;;;;;;13.00;1.77;;;16.50;66.10;;;;;;4845700;29;20129;-74
2022/10/09 12:31:49;;;;;;;10.70;1.63;;;16.50;66.30;;;;;;4835646;29;20049;-77
2022/10/09 12:34:19;;;;;;;6.97;0.95;;;16.50;66.40;;;;;;4835431;29;20114;-74
2022/10/09 12:36:45;;;;;;;9.02;1.40;;;16.50;65.10;;;;;;4810890;29;20097;-74
2022/10/09 12:39:19;;;;;;;10.68;1.40;;;16.50;64.90;;;;;;4826862;29;20374;-74
2022/10/09 12:41:47;;;;;;;8.13;1.83;;;16.50;64.60;;;;;;4829887;29;20541;-74
2022/10/09 12:44:28;;;;;;;6.20;1.20;;;16.50;64.50;;;;;;4845289;29;20153;-74
2022/10/09 12:47:00;;;;;;;12.90;1.85;;;16.50;63.90;;;;;;4844642;29;20474;-73
2022/10/09 12:49:25;;;;;;;8.48;1.10;;;16.50;64.40;;;;;;4845409;29;20099;-74
2022/10/09 12:51:55;;;;;;;3.50;0.90;;;16.50;64.80;;;;;;4844446;29;20442;-73
2022/10/09 12:54:23;;;;;;;5.63;1.23;;;16.50;65.20;;;;;;4845167;29;20411;-73
2022/10/09 12:56:50;;;;;;;8.32;1.55;;;16.50;65.60;;;;;;4844604;29;20064;-74
2022/10/09 12:59:17;;;;;;;5.82;1.02;;;16.50;65.90;;;;;;4844786;29;20117;-74
2022/10/09 13:01:44;;;;;;;6.20;0.82;;;16.50;66.20;;;;;;4844051;29;20046;-74
2022/10/09 13:04:31;;;;;;;7.43;0.85;;;16.40;66.40;;;;;;4828947;29;20042;-74
2022/10/09 13:06:59;;;;;;;8.25;1.40;;;16.50;66.50;;;;;;4844990;29;20094;-74
2022/10/09 13:09:25;;;;;;;14.07;1.25;;;16.50;66.50;;;;;;4844077;29;20061;-75
2022/10/09 13:11:59;;;;;;;8.50;1.50;;;16.50;66.40;;;;;;4843033;29;20073;-74
2022/10/09 13:14:41;;;;;;;10.70;1.30;;;16.50;66.10;;;;;;4842134;29;20082;-74
2022/10/09 13:17:31;;;;;;;9.32;1.88;;;16.50;65.80;;;;;;4844289;29;20046;-74
2022/10/09 13:20:01;;;;;;;5.53;1.45;;;16.50;66.00;;;;;;4827939;29;20112;-75
2022/10/09 13:22:31;;;;;;;4.60;1.02;;;16.50;66.00;;;;;;4843906;29;20062;-76
2022/10/09 13:24:58;;;;;;;6.43;1.45;;;16.50;65.70;;;;;;4844468;29;20046;-75
2022/10/09 13:27:31;;;;;;;5.47;1.08;;;16.50;65.50;;;;;;4842851;29;20110;-75
2022/10/09 13:29:57;;;;;;;5.68;1.30;;;16.50;65.50;;;;;;4844481;29;20129;-75
2022/10/09 13:32:24;;;;;;;5.70;1.10;;;16.50;65.60;;;;;;4844004;29;20046;-75
2022/10/09 13:34:53;;;;;;;10.02;1.75;;;16.50;65.70;;;;;;4844156;29;20057;-75
2022/10/09 13:37:22;;;;;;;7.68;1.40;;;16.50;65.60;;;;;;4843865;29;20050;-76
2022/10/09 13:39:58;;;;;;;8.20;1.38;;;16.50;65.60;;;;;;4844337;29;20050;-75
2022/10/09 13:42:27;;;;;;;5.43;1.00;;;16.50;65.60;;;;;;4844036;29;20065;-75
2022/10/09 13:44:52;;;;;;;5.68;1.05;;;16.50;65.60;;;;;;4843543;29;20499;-75
2022/10/09 13:47:19;;;;;;;4.53;0.90;;;16.50;65.80;;;;;;4844008;29;20053;-75
2022/10/09 13:49:44;;;;;;;6.00;1.17;;;16.50;66.00;;;;;;4826487;29;20050;-75
2022/10/09 13:52:10;;;;;;;6.90;1.63;;;16.50;66.00;;;;;;4843916;29;20140;-75
2022/10/09 13:54:36;;;;;;;8.93;1.02;;;16.50;66.00;;;;;;4844687;29;20050;-75
2022/10/09 13:57:02;;;;;;;9.00;1.63;;;16.50;66.00;;;;;;4844149;29;20050;-75
2022/10/09 13:59:30;;;;;;;3.97;1.08;;;16.50;66.10;;;;;;4843831;29;20096;-76
2022/10/09 14:01:56;;;;;;;9.07;1.15;;;16.50;66.30;;;;;;4843643;29;20466;-75
2022/10/09 14:04:22;;;;;;;6.65;1.02;;;16.50;66.20;;;;;;4843972;29;20042;-75
2022/10/09 14:06:48;;;;;;;12.05;1.58;;;16.50;66.10;;;;;;4828117;29;20373;-76
2022/10/09 14:09:14;;;;;;;6.47;1.58;;;16.50;66.10;;;;;;4843994;29;20054;-77
2022/10/09 14:11:40;;;;;;;11.00;1.98;;;16.50;66.10;;;;;;4846130;29;20070;-75
2022/10/09 14:14:06;;;;;;;7.47;1.38;;;16.50;66.10;;;;;;4842899;29;20549;-76
2022/10/09 14:16:32;;;;;;;7.00;1.27;;;16.50;66.00;;;;;;4843833;29;20073;-76
2022/10/09 14:19:00;;;;;;;6.90;1.27;;;16.50;66.10;;;;;;4843950;29;20046;-77
2022/10/09 14:21:26;;;;;;;5.50;1.20;;;16.50;66.10;;;;;;4847067;29;20054;-75
2022/10/09 14:23:55;;;;;;;11.13;1.23;;;16.50;66.20;;;;;;4847606;29;20072;-78
2022/10/09 14:26:21;;;;;;;15.52;1.98;;;16.60;66.30;;;;;;4831126;29;20369;-75
2022/10/09 14:28:47;;;;;;;5.90;1.50;;;16.60;66.40;;;;;;4847471;29;20046;-77
2022/10/09 14:31:13;;;;;;;7.88;1.50;;;16.60;66.90;;;;;;4830512;29;20060;-75
2022/10/09 14:33:39;;;;;;;10.82;1.85;;;16.60;67.20;;;;;;4830929;29;20137;-74
2022/10/09 14:36:19;;;;;;;9.93;1.95;;;16.60;67.20;;;;;;4847336;29;20150;-76
2022/10/09 14:38:47;;;;;;;14.15;2.55;;;16.70;67.20;;;;;;4847353;29;20166;-74
2022/10/09 14:41:13;;;;;;;12.63;2.45;;;16.70;67.50;;;;;;4830458;29;20046;-73
2022/10/09 14:43:39;;;;;;;9.02;1.85;;;16.70;67.90;;;;;;4847664;29;20065;-74
2022/10/09 14:46:07;;;;;;;18.20;3.08;;;16.70;68.10;;;;;;4847450;29;20050;-73
2022/10/09 14:48:34;;;;;;;10.35;2.33;;;16.80;68.30;;;;;;4847468;29;20054;-73
2022/10/09 14:51:09;;;;;;;9.57;2.72;;;16.90;63.90;;;;;;4846686;29;20481;-74
2022/10/09 14:53:35;;;;;;;7.35;1.65;;;16.90;60.80;;;;;;4830814;29;20042;-74
2022/10/09 14:56:06;;;;;;;7.90;2.17;;;16.90;60.60;;;;;;4847052;29;20056;-75
2022/10/09 14:58:34;;;;;;;5.50;1.63;;;16.90;59.50;;;;;;4846322;29;20097;-74
2022/10/09 15:01:00;;;;;;;5.97;1.60;;;16.90;59.40;;;;;;4847019;29;20128;-74
2022/10/09 15:03:28;;;;;;;7.13;2.30;;;16.90;59.60;;;;;;4847099;29;20112;-74
2022/10/09 15:05:58;;;;;;;6.40;1.80;;;16.90;59.40;;;;;;4846952;29;20054;-74
2022/10/09 15:08:24;;;;;;;7.57;1.95;;;16.90;60.50;;;;;;4846712;29;20072;-73
2022/10/09 15:10:51;;;;;;;5.55;1.75;;;16.80;62.00;;;;;;4846411;29;20396;-73
2022/10/09 15:13:17;;;;;;;5.95;1.48;;;16.80;63.00;;;;;;4846650;29;20050;-73
2022/10/09 15:15:42;;;;;;;10.35;1.85;;;16.80;63.60;;;;;;4846440;29;20113;-74
2022/10/09 15:18:08;;;;;;;4.38;1.42;;;16.70;64.10;;;;;;4846517;29;20045;-74
2022/10/09 15:20:34;;;;;;;6.20;1.35;;;16.70;64.60;;;;;;4846271;29;20049;-73
2022/10/09 15:23:00;;;;;;;5.43;1.40;;;16.70;64.90;;;;;;4846615;29;20042;-73
2022/10/09 15:25:30;;;;;;;5.38;1.30;;;16.70;65.30;;;;;;4846927;29;20410;-73
2022/10/09 15:28:00;;;;;;;12.00;2.08;;;16.70;65.60;;;;;;4846029;29;20057;-75
2022/10/09 15:30:29;;;;;;;9.57;2.60;;;16.70;65.70;;;;;;4844104;29;20038;-75
2022/10/09 15:33:02;;;;;;;7.13;2.00;;;16.90;63.50;;;;;;4814933;29;20129;-75
2022/10/09 15:35:28;;;;;;;9.18;2.22;;;17.00;62.00;;;;;;4830094;29;20077;-75
2022/10/09 15:58:56;;;;;;;12.30;2.20;;;17.00;64.10;;;;;;5387241;24;20073;-78
2022/10/09 16:01:22;;;;;;;8.38;1.50;;;17.00;64.60;;;;;;4829237;29;20388;-77
2022/10/09 16:03:48;;;;;;;10.10;1.63;;;17.00;64.80;;;;;;4845046;29;20058;-78
2022/10/09 16:06:17;;;;;;;10.50;1.42;;;16.90;64.90;;;;;;4844262;29;20050;-81
2022/10/09 16:08:43;;;;;;;5.90;1.58;;;16.90;65.00;;;;;;4845538;29;20123;-78
2022/10/09 16:11:11;;;;;;;6.95;1.58;;;16.90;65.20;;;;;;4845442;29;20081;-78
2022/10/09 16:13:40;;;;;;;5.15;1.48;;;16.90;65.30;;;;;;4827462;29;20378;-77
2022/10/09 16:16:08;;;;;;;4.22;1.45;;;16.90;65.30;;;;;;4811494;29;20161;-77
2022/10/09 16:18:34;;;;;;;7.68;1.60;;;16.90;65.40;;;;;;4811225;29;20062;-78
2022/10/09 16:21:12;;;;;;;7.97;1.80;;;16.90;65.50;;;;;;4826863;29;20046;-76
2022/10/09 16:23:39;;;;;;;6.72;1.65;;;16.90;65.60;;;;;;4827305;29;20367;-79
2022/10/09 16:26:05;;;;;;;5.05;1.27;;;16.90;65.60;;;;;;4827810;29;20114;-78
2022/10/09 16:28:32;;;;;;;7.22;1.08;;;16.90;65.60;;;;;;4827427;29;20101;-77
2022/10/09 16:30:58;;;;;;;5.90;1.10;;;16.90;65.70;;;;;;4811158;29;20150;-77
2022/10/09 16:33:24;;;;;;;7.15;1.80;;;16.90;65.70;;;;;;4810843;29;20064;-77
2022/10/09 16:35:50;;;;;;;3.67;1.80;;;16.90;65.70;;;;;;4844225;29;20053;-77
2022/10/09 16:38:17;;;;;;;6.47;1.23;;;16.90;65.80;;;;;;4829445;29;20141;-76
2022/10/09 16:40:44;;;;;;;8.88;2.05;;;16.90;66.10;;;;;;4845638;29;20060;-75
2022/10/09 16:43:10;;;;;;;5.53;1.05;;;16.90;66.30;;;;;;4844637;29;20477;-78
2022/10/09 16:45:36;;;;;;;13.20;2.13;;;16.80;66.50;;;;;;4845080;29;20136;-78
2022/10/09 16:48:02;;;;;;;10.90;1.63;;;16.90;67.00;;;;;;4841434;29;20126;-77
2022/10/09 16:50:28;;;;;;;9.07;1.42;;;16.90;67.10;;;;;;4827164;29;20081;-76
2022/10/09 16:52:54;;;;;;;8.50;1.42;;;16.90;67.00;;;;;;4826851;29;20440;-76
2022/10/09 16:55:21;;;;;;;4.10;0.88;;;16.90;67.00;;;;;;4827124;29;20061;-77
2022/10/09 16:57:47;;;;;;;10.25;1.85;;;16.90;67.10;;;;;;4826995;29;20118;-76
2022/10/09 17:00:13;;;;;;;7.85;1.52;;;16.90;67.10;;;;;;4826052;29;20058;-76
2022/10/09 17:02:39;;;;;;;5.05;1.50;;;16.90;67.10;;;;;;4826839;29;20154;-74
2022/10/09 17:05:06;;;;;;;7.28;1.40;;;16.90;67.10;;;;;;4836979;29;20061;-77
2022/10/09 17:07:32;;;;;;;5.47;1.55;;;16.90;67.10;;;;;;4844701;29;20056;-78
2022/10/09 17:09:58;;;;;;;8.50;1.58;;;16.90;67.00;;;;;;4845289;29;20110;-74
2022/10/09 17:12:24;;;;;;;8.57;1.25;;;16.90;67.10;;;;;;4844743;29;20387;-79
2022/10/09 17:14:50;;;;;;;7.03;1.65;;;16.90;67.00;;;;;;4844828;29;20065;-79
2022/10/09 17:17:16;;;;;;;8.70;1.77;;;17.00;67.00;;;;;;4844458;29;20141;-75
2022/10/09 17:19:42;;;;;;;8.85;1.30;;;17.00;67.40;;;;;;4815102;29;20058;-76
2022/10/09 17:22:08;;;;;;;6.57;1.27;;;17.00;67.30;;;;;;4826873;29;20058;-77
2022/10/09 17:24:34;;;;;;;9.25;1.33;;;17.00;67.30;;;;;;4825973;29;20065;-76
2022/10/09 17:26:59;;;;;;;5.60;1.25;;;17.00;67.30;;;;;;4840795;29;20057;-76
2022/10/09 17:29:25;;;;;;;5.90;1.23;;;17.00;67.30;;;;;;4827047;29;20050;-76
2022/10/09 17:31:51;;;;;;;6.57;1.42;;;17.00;67.30;;;;;;4826073;29;20057;-75
2022/10/09 17:34:17;;;;;;;6.45;1.10;;;17.00;67.30;;;;;;4826446;29;20054;-76
2022/10/09 17:36:44;;;;;;;5.03;1.25;;;17.00;67.20;;;;;;4826427;29;20126;-74
2022/10/09 17:39:13;;;;;;;8.63;1.13;;;17.10;67.20;;;;;;4826292;29;20137;-78
2022/10/09 17:41:39;;;;;;;4.85;1.20;;;17.10;67.20;;;;;;4826733;29;20343;-75
2022/10/09 17:44:05;;;;;;;6.35;1.17;;;17.10;67.20;;;;;;4826231;29;20042;-75
2022/10/09 17:46:31;;;;;;;6.35;1.23;;;17.10;67.10;;;;;;4825769;29;20042;-76
2022/10/09 17:49:00;;;;;;;6.00;1.20;;;17.10;67.30;;;;;;4824470;29;20058;-75
2022/10/09 17:51:28;;;;;;;6.82;1.48;;;17.00;67.30;;;;;;4810161;29;20054;-77
2022/10/09 17:53:59;;;;;;;10.43;1.13;;;17.10;67.30;;;;;;4838417;29;20042;-77
2022/10/09 17:56:26;;;;;;;6.85;1.50;;;17.10;67.20;;;;;;4847997;29;20042;-76
2022/10/09 17:58:54;;;;;;;5.85;1.25;;;17.10;67.30;;;;;;4848004;29;20054;-75
2022/10/09 18:01:21;;;;;;;8.05;1.02;;;17.10;67.30;;;;;;4828773;29;20073;-76
2022/10/09 18:03:46;;;;;;;6.38;1.63;;;17.10;67.40;;;;;;4829624;29;20061;-77
2022/10/09 18:06:15;;;;;;;6.88;1.35;;;17.10;67.30;;;;;;4830157;29;20050;-76
2022/10/09 18:08:42;;;;;;;5.80;1.48;;;17.10;67.30;;;;;;4829656;29;20199;-75
2022/10/09 18:11:10;;;;;;;6.60;1.20;;;17.10;67.30;;;;;;4829602;29;20057;-74
2022/10/09 18:13:38;;;;;;;6.57;1.50;;;17.10;67.20;;;;;;4813525;29;20473;-76
2022/10/09 18:16:05;;;;;;;10.07;1.65;;;17.10;67.10;;;;;;4828868;29;20058;-77
2022/10/09 18:18:31;;;;;;;9.00;1.95;;;17.10;67.50;;;;;;4827185;29;20127;-77
2022/10/09 18:21:05;;;;;;;5.70;1.45;;;17.10;67.70;;;;;;4838271;29;20057;-78
2022/10/09 18:23:32;;;;;;;9.13;1.70;;;17.10;67.90;;;;;;4846949;29;20064;-77
2022/10/09 18:25:58;;;;;;;5.50;1.23;;;17.10;68.00;;;;;;4846791;29;20392;-76
2022/10/09 18:28:23;;;;;;;7.18;1.60;;;17.10;67.90;;;;;;4846634;29;20057;-76
2022/10/09 18:30:49;;;;;;;8.60;1.75;;;17.10;67.70;;;;;;4831183;29;20132;-78
2022/10/09 18:33:15;;;;;;;12.32;1.70;;;17.10;67.60;;;;;;4847426;29;20057;-76
2022/10/09 18:35:41;;;;;;;10.48;1.75;;;17.10;67.60;;;;;;4847482;29;20106;-78
2022/10/09 18:38:08;;;;;;;4.15;1.50;;;17.10;67.60;;;;;;4846822;29;20050;-75
2022/10/09 18:40:38;;;;;;;6.53;1.80;;;17.10;67.50;;;;;;4836024;29;20046;-75
2022/10/09 18:43:04;;;;;;;4.45;1.52;;;17.10;67.50;;;;;;4842618;29;20058;-79
2022/10/09 18:45:30;;;;;;;4.60;1.38;;;17.20;67.60;;;;;;4813935;29;20046;-75
2022/10/09 18:47:57;;;;;;;6.78;1.52;;;17.10;67.60;;;;;;4828838;29;20097;-76
2022/10/09 18:50:23;;;;;;;5.47;1.70;;;17.10;68.30;;;;;;4834725;29;20094;-75
2022/10/09 18:52:49;;;;;;;5.47;1.60;;;17.10;67.80;;;;;;4830542;29;20045;-77
2022/10/09 18:55:17;;;;;;;9.38;2.00;;;17.10;67.90;;;;;;4847741;29;20145;-78
2022/10/09 18:57:44;;;;;;;5.25;1.58;;;17.10;67.90;;;;;;4847403;29;20129;-77
2022/10/09 19:00:11;;;;;;;6.78;1.92;;;17.10;67.90;;;;;;4846764;29;20054;-77
2022/10/09 19:02:37;;;;;;;8.90;1.77;;;17.10;67.80;;;;;;4839442;29;20062;-76
2022/10/09 19:05:03;;;;;;;3.75;1.73;;;17.10;67.80;;;;;;4847005;29;20057;-76
2022/10/09 19:07:29;;;;;;;4.45;1.40;;;17.10;67.70;;;;;;4828290;29;20054;-74
2022/10/09 19:09:55;;;;;;;6.32;1.55;;;17.10;67.70;;;;;;4848250;29;20116;-75
2022/10/09 19:12:20;;;;;;;9.30;1.90;;;17.10;68.00;;;;;;4836248;29;20049;-78
2022/10/09 19:14:46;;;;;;;10.57;1.90;;;17.10;69.40;;;;;;4830408;29;20050;-77
2022/10/09 19:17:12;;;;;;;4.78;1.63;;;17.10;68.80;;;;;;4835871;29;20058;-77
2022/10/09 19:19:39;;;;;;;9.95;2.55;;;17.10;69.60;;;;;;4828349;29;20115;-75
2022/10/09 19:22:06;;;;;;;4.57;1.80;;;17.10;70.10;;;;;;4828239;29;20355;-78
2022/10/09 19:24:32;;;;;;;9.70;2.60;;;17.10;70.30;;;;;;4828424;29;20050;-76
2022/10/09 19:26:58;;;;;;;6.55;1.85;;;17.10;70.10;;;;;;4827844;29;20141;-76
2022/10/09 19:29:24;;;;;;;8.02;1.60;;;17.10;70.10;;;;;;4838833;29;20046;-74
2022/10/09 19:31:50;;;;;;;4.30;1.52;;;17.00;70.20;;;;;;4846490;29;20045;-77